createdAt,value
2018-03-26T00:01:38.586Z,99.90
2018-03-26T00:04:12.404Z,99.90
2018-03-26T00:06:40.887Z,99.90
2018-03-26T00:09:09.353Z,99.90
2018-03-26T00:11:37.928Z,99.90
2018-03-26T00:14:09.497Z,99.90
2018-03-26T00:16:38.657Z,99.90
2018-03-26T00:19:07.088Z,99.90
2018-03-26T00:21:35.471Z,99.90
2018-03-26T00:24:04.640Z,99.90
2018-03-26T00:26:34.645Z,99.90
2018-03-26T00:29:03.117Z,99.90
2018-03-26T00:31:31.688Z,99.90
2018-03-26T00:34:00.125Z,99.90
2018-03-26T00:36:29.298Z,99.90
2018-03-26T00:38:57.899Z,99.90
2018-03-26T00:41:26.385Z,99.90
2018-03-26T00:43:54.778Z,99.90
2018-03-26T00:46:23.279Z,99.90
2018-03-26T00:48:55.996Z,99.90
2018-03-26T00:51:24.451Z,99.90
2018-03-26T00:53:52.882Z,99.90
2018-03-26T00:56:21.283Z,99.90
2018-03-26T00:58:49.767Z,99.90
2018-03-26T01:01:18.212Z,99.90
2018-03-26T01:03:46.647Z,99.90
2018-03-26T01:06:18.190Z,99.90
2018-03-26T01:08:46.777Z,99.90
2018-03-26T01:11:16.027Z,99.90
2018-03-26T01:13:44.503Z,99.90
2018-03-26T01:16:13.668Z,99.90
2018-03-26T01:18:42.805Z,99.90
2018-03-26T01:21:11.230Z,99.90
2018-03-26T01:23:39.836Z,99.90
2018-03-26T01:26:08.281Z,99.90
2018-03-26T01:28:36.911Z,99.90
2018-03-26T01:31:05.533Z,99.90
2018-03-26T01:33:39.374Z,99.90
2018-03-26T01:36:07.901Z,99.90
2018-03-26T01:38:36.360Z,99.90
2018-03-26T01:41:05.788Z,99.90
2018-03-26T01:43:34.183Z,99.90
2018-03-26T01:46:02.590Z,99.90
2018-03-26T01:48:31.050Z,99.90
2018-03-26T01:51:00.203Z,99.90
2018-03-26T01:53:28.931Z,99.90
2018-03-26T01:55:57.566Z,99.90
2018-03-26T01:58:26.018Z,99.90
2018-03-26T02:00:54.441Z,99.90
2018-03-26T02:03:23.058Z,99.90
2018-03-26T02:05:52.395Z,99.90
2018-03-26T02:08:20.905Z,99.90
2018-03-26T02:10:50.120Z,99.90
2018-03-26T02:13:19.355Z,99.90
2018-03-26T02:15:47.785Z,99.90
2018-03-26T02:18:17.595Z,99.90
2018-03-26T02:20:46.172Z,99.90
2018-03-26T02:23:14.602Z,99.90
2018-03-26T02:25:43.779Z,99.90
2018-03-26T02:28:12.369Z,99.90
2018-03-26T02:30:41.607Z,99.90
2018-03-26T02:33:10.189Z,99.90
2018-03-26T02:35:38.578Z,99.90
2018-03-26T02:38:07.040Z,99.90
2018-03-26T02:40:36.842Z,99.90
2018-03-26T02:43:05.409Z,99.90
2018-03-26T02:45:34.997Z,99.90
2018-03-26T02:48:13.980Z,99.90
2018-03-26T02:50:42.412Z,99.90
2018-03-26T02:53:11.572Z,99.90
2018-03-26T02:55:40.161Z,99.90
2018-03-26T02:58:08.578Z,99.90
2018-03-26T03:00:37.024Z,99.90
2018-03-26T03:03:05.464Z,99.90
2018-03-26T03:05:34.073Z,99.90
2018-03-26T03:08:02.507Z,99.90
2018-03-26T03:10:30.915Z,99.90
2018-03-26T03:13:00.320Z,99.90
2018-03-26T03:15:28.751Z,99.90
2018-03-26T03:17:57.967Z,99.90
2018-03-26T03:20:26.393Z,99.90
2018-03-26T03:22:58.019Z,99.90
2018-03-26T03:25:26.457Z,99.90
2018-03-26T03:27:54.918Z,99.90
2018-03-26T03:30:24.320Z,99.90
2018-03-26T03:32:53.519Z,99.90
2018-03-26T03:35:22.388Z,99.90
2018-03-26T03:37:51.579Z,99.90
2018-03-26T03:40:20.009Z,99.90
2018-03-26T03:42:48.513Z,99.90
2018-03-26T03:45:22.401Z,99.90
2018-03-26T03:47:52.127Z,99.90
2018-03-26T03:50:20.560Z,99.90
2018-03-26T03:52:49.018Z,99.90
2018-03-26T03:55:17.467Z,99.90
2018-03-26T03:57:46.612Z,99.90
2018-03-26T04:00:15.064Z,99.90
2018-03-26T04:02:43.505Z,99.90
2018-03-26T04:05:16.538Z,99.90
2018-03-26T04:07:44.924Z,99.90
2018-03-26T04:10:16.962Z,99.90
2018-03-26T04:12:45.375Z,99.90
2018-03-26T04:15:13.759Z,99.90
2018-03-26T04:17:43.154Z,99.90
2018-03-26T04:20:11.756Z,99.90
2018-03-26T04:22:41.040Z,99.90
2018-03-26T04:25:11.127Z,99.90
2018-03-26T04:27:39.580Z,99.90
2018-03-26T04:30:08.210Z,99.90
2018-03-26T04:32:42.023Z,99.90
2018-03-26T04:35:10.961Z,99.90
2018-03-26T04:37:39.421Z,99.90
2018-03-26T04:40:08.692Z,99.90
2018-03-26T04:42:37.137Z,99.90
2018-03-26T04:45:05.550Z,99.90
2018-03-26T04:47:33.972Z,99.90
2018-03-26T04:50:02.408Z,99.90
2018-03-26T04:52:30.859Z,99.90
2018-03-26T04:54:59.326Z,99.90
2018-03-26T04:57:33.233Z,99.90
2018-03-26T05:00:01.858Z,99.90
2018-03-26T05:02:30.282Z,99.90
2018-03-26T05:04:58.873Z,99.90
2018-03-26T05:07:27.256Z,99.90
2018-03-26T05:09:56.065Z,99.90
2018-03-26T05:12:24.478Z,99.90
2018-03-26T05:14:53.684Z,99.90
2018-03-26T05:17:22.093Z,99.90
2018-03-26T05:19:51.972Z,99.90
2018-03-26T05:22:20.448Z,99.90
2018-03-26T05:24:49.102Z,99.90
2018-03-26T05:27:17.512Z,99.90
2018-03-26T05:29:45.944Z,99.90
2018-03-26T05:32:14.469Z,99.90
2018-03-26T05:34:43.054Z,99.90
2018-03-26T05:37:11.660Z,99.90
2018-03-26T05:39:40.113Z,99.90
2018-03-26T05:42:12.122Z,99.90
2018-03-26T05:44:40.745Z,99.90
2018-03-26T05:47:10.305Z,99.90
2018-03-26T05:49:38.744Z,99.90
2018-03-26T05:52:07.129Z,99.90
2018-03-26T05:54:37.101Z,99.90
2018-03-26T05:57:05.691Z,99.90
2018-03-26T05:59:34.117Z,99.90
2018-03-26T06:02:02.558Z,99.90
2018-03-26T06:04:34.553Z,99.90
2018-03-26T06:07:03.137Z,99.90
2018-03-26T06:09:31.581Z,99.90
2018-03-26T06:12:00.030Z,99.90
2018-03-26T06:14:28.639Z,99.90
2018-03-26T06:17:09.815Z,99.90
2018-03-26T06:19:38.224Z,99.90
2018-03-26T06:22:06.641Z,99.90
2018-03-26T06:24:39.533Z,99.90
2018-03-26T06:27:07.955Z,99.90
2018-03-26T06:29:36.442Z,99.90
2018-03-26T06:32:04.839Z,99.90
2018-03-26T06:34:33.402Z,99.90
2018-03-26T06:37:17.537Z,99.90
2018-03-26T06:39:45.941Z,99.90
2018-03-26T06:42:14.399Z,99.90
2018-03-26T06:44:48.460Z,99.90
2018-03-26T06:47:17.813Z,99.90
2018-03-26T06:49:46.272Z,99.90
2018-03-26T06:52:14.669Z,99.90
2018-03-26T06:54:43.898Z,99.90
2018-03-26T06:57:12.315Z,99.90
2018-03-26T06:59:40.786Z,99.90
2018-03-26T07:02:09.226Z,99.90
2018-03-26T07:04:38.497Z,99.90
2018-03-26T07:07:12.154Z,99.90
2018-03-26T07:09:41.485Z,99.90
2018-03-26T07:12:09.887Z,99.90
2018-03-26T07:14:38.358Z,99.80
2018-03-26T07:17:06.772Z,99.70
2018-03-26T07:19:36.070Z,99.70
2018-03-26T07:22:04.491Z,99.70
2018-03-26T07:24:33.069Z,99.60
2018-03-26T07:27:02.399Z,99.90
2018-03-26T07:29:32.278Z,99.60
2018-03-26T07:32:00.712Z,99.50
2018-03-26T07:34:50.353Z,99.60
2018-03-26T07:37:18.777Z,99.50
2018-03-26T07:39:47.226Z,99.40
2018-03-26T07:42:16.387Z,99.50
2018-03-26T07:44:45.201Z,99.30
2018-03-26T07:47:13.691Z,99.30
2018-03-26T07:49:45.465Z,99.20
2018-03-26T07:52:14.789Z,99.10
2018-03-26T07:54:43.198Z,99.10
2018-03-26T07:57:11.616Z,98.90
2018-03-26T07:59:40.041Z,98.90
2018-03-26T08:02:09.301Z,98.90
2018-03-26T08:04:39.274Z,99.10
2018-03-26T08:07:07.899Z,98.80
2018-03-26T08:09:36.346Z,98.60
2018-03-26T08:12:04.758Z,98.40
2018-03-26T08:14:33.203Z,98.50
2018-03-26T08:17:01.713Z,98.30
2018-03-26T08:19:30.242Z,98.30
2018-03-26T08:21:58.622Z,98.20
2018-03-26T08:24:27.034Z,98.20
2018-03-26T08:26:55.599Z,98.00
2018-03-26T08:29:24.331Z,98.10
2018-03-26T08:31:52.722Z,98.20
2018-03-26T08:34:22.509Z,98.20
2018-03-26T08:36:50.955Z,98.20
2018-03-26T08:39:19.391Z,98.00
2018-03-26T08:41:47.812Z,98.20
2018-03-26T08:44:16.405Z,98.10
2018-03-26T08:46:44.830Z,98.00
2018-03-26T08:49:13.455Z,98.10
2018-03-26T08:51:41.848Z,98.30
2018-03-26T08:54:10.293Z,98.40
2018-03-26T08:56:44.156Z,98.40
2018-03-26T08:59:18.099Z,98.40
2018-03-26T09:01:46.718Z,98.60
2018-03-26T09:04:15.889Z,98.40
2018-03-26T09:06:44.372Z,98.30
2018-03-26T09:09:13.566Z,98.40
2018-03-26T09:11:44.001Z,98.40
2018-03-26T09:14:12.424Z,98.60
2018-03-26T09:16:40.993Z,98.20
2018-03-26T09:19:19.865Z,97.50
2018-03-26T09:21:53.748Z,97.60
2018-03-26T09:24:27.441Z,97.70
2018-03-26T09:26:58.330Z,97.90
2018-03-26T09:29:26.781Z,98.20
2018-03-26T09:31:56.877Z,97.70
2018-03-26T09:34:25.347Z,97.70
2018-03-26T09:36:54.541Z,98.40
2018-03-26T09:39:22.933Z,98.40
2018-03-26T09:41:51.374Z,98.20
2018-03-26T09:44:19.781Z,98.10
2018-03-26T09:46:48.218Z,97.90
2018-03-26T09:49:22.119Z,97.90
2018-03-26T09:51:51.196Z,98.00
2018-03-26T09:54:21.404Z,98.20
2018-03-26T09:56:49.980Z,98.50
2018-03-26T09:59:18.384Z,98.10
2018-03-26T10:01:53.242Z,98.90
2018-03-26T10:04:21.597Z,98.90
2018-03-26T10:06:50.788Z,99.10
2018-03-26T10:09:19.369Z,99.10
2018-03-26T10:11:47.969Z,99.30
2018-03-26T10:14:22.816Z,97.20
2018-03-26T10:16:51.294Z,97.20
2018-03-26T10:19:19.721Z,97.10
2018-03-26T10:21:48.479Z,97.10
2018-03-26T10:24:16.890Z,96.30
2018-03-26T10:26:46.156Z,96.70
2018-03-26T10:29:14.682Z,96.70
2018-03-26T10:31:43.249Z,96.70
2018-03-26T10:34:11.633Z,95.90
2018-03-26T10:36:45.658Z,95.00
2018-03-26T10:39:14.049Z,95.50
2018-03-26T10:41:42.612Z,96.50
2018-03-26T10:44:12.159Z,95.60
2018-03-26T10:46:40.580Z,95.60
2018-03-26T10:49:09.015Z,95.50
2018-03-26T10:51:45.858Z,93.40
2018-03-26T10:54:15.040Z,93.50
2018-03-26T10:56:43.410Z,93.50
2018-03-26T10:59:12.763Z,93.50
2018-03-26T11:01:41.333Z,93.50
2018-03-26T11:04:09.691Z,93.10
2018-03-26T11:06:38.112Z,92.70
2018-03-26T11:09:07.439Z,92.40
2018-03-26T11:11:36.079Z,92.40
2018-03-26T11:14:05.061Z,93.20
2018-03-26T11:16:35.407Z,93.10
2018-03-26T11:19:09.095Z,93.90
2018-03-26T11:21:42.771Z,94.00
2018-03-26T11:24:11.157Z,94.10
2018-03-26T11:26:40.300Z,95.20
2018-03-26T11:29:08.919Z,95.30
2018-03-26T11:31:37.324Z,95.30
2018-03-26T11:34:06.481Z,96.00
2018-03-26T11:36:34.931Z,96.00
2018-03-26T11:39:03.787Z,95.70
2018-03-26T11:41:32.223Z,95.90
2018-03-26T11:44:03.108Z,95.50
2018-03-26T11:46:31.545Z,96.00
2018-03-26T11:48:59.924Z,94.90
2018-03-26T11:51:28.465Z,94.80
2018-03-26T11:53:56.870Z,94.90
2018-03-26T11:56:25.465Z,94.20
2018-03-26T11:58:53.854Z,94.10
2018-03-26T12:01:23.095Z,95.30
2018-03-26T12:03:51.474Z,96.00
2018-03-26T12:06:20.085Z,96.00
2018-03-26T12:08:48.498Z,96.90
2018-03-26T12:11:16.888Z,98.20
2018-03-26T12:13:46.072Z,98.80
2018-03-26T12:16:14.642Z,98.80
2018-03-26T12:18:43.053Z,99.90
2018-03-26T12:21:11.464Z,99.90
2018-03-26T12:23:52.501Z,99.90
2018-03-26T12:26:24.252Z,99.90
2018-03-26T12:29:04.531Z,99.90
2018-03-26T12:31:33.736Z,99.90
2018-03-26T12:34:14.020Z,99.90
2018-03-26T12:36:43.209Z,99.90
2018-03-26T12:39:12.341Z,99.90
2018-03-26T12:41:40.931Z,99.90
2018-03-26T12:44:09.311Z,99.90
2018-03-26T12:46:44.881Z,99.90
2018-03-26T12:49:13.484Z,99.90
2018-03-26T12:51:53.765Z,99.90
2018-03-26T12:54:22.136Z,99.90
2018-03-26T12:57:02.451Z,99.90
2018-03-26T12:59:31.803Z,99.90
2018-03-26T13:02:12.031Z,99.90
2018-03-26T13:04:40.416Z,99.90
2018-03-26T13:07:10.324Z,99.90
2018-03-26T13:09:39.527Z,99.90
2018-03-26T13:12:08.077Z,99.90
2018-03-26T13:14:36.539Z,99.90
2018-03-26T13:17:04.958Z,99.90
2018-03-26T13:19:35.297Z,99.90
2018-03-26T13:22:03.702Z,99.90
2018-03-26T13:24:32.072Z,99.90
2018-03-26T13:27:00.474Z,99.90
2018-03-26T13:29:29.042Z,99.90
2018-03-26T13:31:57.571Z,99.90
2018-03-26T13:34:25.969Z,99.90
2018-03-26T13:36:55.008Z,99.90
2018-03-26T13:39:23.392Z,99.90
2018-03-26T13:41:51.858Z,99.90
2018-03-26T13:44:21.002Z,99.90
2018-03-26T13:46:49.439Z,99.90
2018-03-26T13:49:18.797Z,99.90
2018-03-26T13:51:53.472Z,99.90
2018-03-26T13:54:23.389Z,99.90
2018-03-26T13:56:51.770Z,99.90
2018-03-26T13:59:30.695Z,99.90
2018-03-26T14:01:59.291Z,99.90
2018-03-26T14:04:27.724Z,99.90
2018-03-26T14:06:56.163Z,99.90
2018-03-26T14:09:37.366Z,99.90
2018-03-26T14:12:17.619Z,99.90
2018-03-26T14:15:03.244Z,99.30
2018-03-26T14:17:43.561Z,99.60
2018-03-26T14:20:11.959Z,99.40
2018-03-26T14:22:41.301Z,98.80
2018-03-26T14:25:09.869Z,99.30
2018-03-26T14:27:38.426Z,99.30
2018-03-26T14:30:06.818Z,99.70
2018-03-26T14:32:35.179Z,99.20
2018-03-26T14:35:15.211Z,99.60
2018-03-26T14:37:44.527Z,98.70
2018-03-26T14:40:12.979Z,98.80
2018-03-26T14:42:41.366Z,99.00
2018-03-26T14:45:10.536Z,99.70
2018-03-26T14:47:38.918Z,99.70
2018-03-26T14:50:07.983Z,99.70
2018-03-26T14:52:36.405Z,99.50
2018-03-26T14:55:10.314Z,99.90
2018-03-26T14:57:45.220Z,99.90
2018-03-26T15:00:13.596Z,99.90
2018-03-26T15:02:42.044Z,99.90
2018-03-26T15:05:10.598Z,99.90
2018-03-26T15:07:38.952Z,99.90
2018-03-26T15:10:07.344Z,99.90
2018-03-26T15:12:35.740Z,99.40
2018-03-26T15:15:04.293Z,99.60
2018-03-26T15:17:32.989Z,99.50
2018-03-26T15:20:06.956Z,99.50
2018-03-26T15:22:39.790Z,99.50
2018-03-26T15:25:08.175Z,99.50
2018-03-26T15:27:36.552Z,99.50
2018-03-26T15:30:05.104Z,99.50
2018-03-26T15:32:33.537Z,99.30
2018-03-26T15:35:02.067Z,99.30
2018-03-26T15:37:30.426Z,99.90
2018-03-26T15:39:59.623Z,99.90
2018-03-26T15:42:27.988Z,99.90
2018-03-26T15:44:56.347Z,99.90
2018-03-26T15:47:24.764Z,99.60
2018-03-26T15:49:53.153Z,99.80
2018-03-26T15:52:21.556Z,99.90
2018-03-26T15:54:49.955Z,99.90
2018-03-26T15:57:18.355Z,99.80
2018-03-26T15:59:46.913Z,99.90
2018-03-26T16:02:15.937Z,99.90
2018-03-26T16:04:44.320Z,99.90
2018-03-26T16:07:18.936Z,99.90
2018-03-26T16:09:47.355Z,99.90
2018-03-26T16:12:15.731Z,99.90
2018-03-26T16:14:44.897Z,99.90
2018-03-26T16:17:13.310Z,99.90
2018-03-26T16:19:42.550Z,99.90
2018-03-26T16:22:10.982Z,99.90
2018-03-26T16:24:40.543Z,99.90
2018-03-26T16:27:09.101Z,99.90
2018-03-26T16:29:43.966Z,99.90
2018-03-26T16:32:17.460Z,99.90
2018-03-26T16:34:46.874Z,99.90
2018-03-26T16:37:15.280Z,99.90
2018-03-26T16:39:43.652Z,99.90
2018-03-26T16:42:21.611Z,99.90
2018-03-26T16:44:50.793Z,99.90
2018-03-26T16:47:19.155Z,99.90
2018-03-26T16:49:47.546Z,99.90
2018-03-26T16:52:15.934Z,99.90
2018-03-26T16:54:45.248Z,99.90
2018-03-26T16:57:13.799Z,99.90
2018-03-26T16:59:42.256Z,99.90
2018-03-26T17:02:11.323Z,99.90
2018-03-26T17:04:39.706Z,99.90
2018-03-26T17:07:08.255Z,99.90
2018-03-26T17:09:36.811Z,99.90
2018-03-26T17:12:05.214Z,99.90
2018-03-26T17:14:35.980Z,99.90
2018-03-26T17:17:04.555Z,99.90
2018-03-26T17:19:33.136Z,99.90
2018-03-26T17:22:01.628Z,99.90
2018-03-26T17:24:30.020Z,99.90
2018-03-26T17:26:58.383Z,99.90
2018-03-26T17:29:27.724Z,99.90
2018-03-26T17:31:56.126Z,99.90
2018-03-26T17:34:24.480Z,99.90
2018-03-26T17:36:58.232Z,99.90
2018-03-26T17:39:26.643Z,99.90
2018-03-26T17:41:55.009Z,99.90
2018-03-26T17:44:23.408Z,99.90
2018-03-26T17:46:51.782Z,99.90
2018-03-26T17:49:20.162Z,99.90
2018-03-26T17:51:48.564Z,99.50
2018-03-26T17:54:16.942Z,99.10
2018-03-26T17:56:45.377Z,99.50
2018-03-26T17:59:15.187Z,99.30
2018-03-26T18:01:43.573Z,99.00
2018-03-26T18:04:14.052Z,98.80
2018-03-26T18:06:42.630Z,98.80
2018-03-26T18:09:11.759Z,98.40
2018-03-26T18:12:00.527Z,98.40
2018-03-26T18:14:28.896Z,98.80
2018-03-26T18:16:57.459Z,99.10
2018-03-26T18:19:31.183Z,98.70
2018-03-26T18:22:03.094Z,98.70
2018-03-26T18:24:32.400Z,98.70
2018-03-26T18:27:00.752Z,98.70
2018-03-26T18:29:29.319Z,98.60
2018-03-26T18:31:57.818Z,98.40
2018-03-26T18:34:26.179Z,97.90
2018-03-26T18:36:55.523Z,97.00
2018-03-26T18:39:24.073Z,97.00
2018-03-26T18:41:52.528Z,97.40
2018-03-26T18:44:20.907Z,97.10
2018-03-26T18:46:49.335Z,96.60
2018-03-26T18:49:18.847Z,97.30
2018-03-26T18:51:48.160Z,96.60
2018-03-26T18:54:17.398Z,97.00
2018-03-26T18:56:45.931Z,97.00
2018-03-26T18:59:14.604Z,97.30
2018-03-26T19:01:42.988Z,96.80
2018-03-26T19:04:12.195Z,96.50
2018-03-26T19:06:42.754Z,96.80
2018-03-26T19:09:11.152Z,96.80
2018-03-26T19:11:39.687Z,96.50
2018-03-26T19:14:08.820Z,96.70
2018-03-26T19:16:37.262Z,96.70
2018-03-26T19:19:06.542Z,97.10
2018-03-26T19:21:34.895Z,97.00
2018-03-26T19:24:03.307Z,97.00
2018-03-26T19:26:32.249Z,96.70
2018-03-26T19:29:07.773Z,96.70
2018-03-26T19:31:37.286Z,96.40
2018-03-26T19:34:06.427Z,97.10
2018-03-26T19:36:34.837Z,97.10
2018-03-26T19:39:03.231Z,96.70
2018-03-26T19:41:31.779Z,97.20
2018-03-26T19:44:00.180Z,96.90
2018-03-26T19:46:29.499Z,97.40
2018-03-26T19:48:57.864Z,97.40
2018-03-26T19:51:27.169Z,96.70
2018-03-26T19:53:55.556Z,96.60
2018-03-26T19:56:23.971Z,97.10
2018-03-26T19:58:52.314Z,97.30
2018-03-26T20:01:21.641Z,96.20
2018-03-26T20:03:50.042Z,96.20
2018-03-26T20:06:18.407Z,96.10
2018-03-26T20:08:46.794Z,95.40
2018-03-26T20:11:15.215Z,96.40
2018-03-26T20:13:43.604Z,95.80
2018-03-26T20:16:11.998Z,96.10
2018-03-26T20:18:40.408Z,96.10
2018-03-26T20:21:08.862Z,96.00
2018-03-26T20:23:37.216Z,96.00
2018-03-26T20:26:05.622Z,96.20
2018-03-26T20:28:34.225Z,96.00
2018-03-26T20:31:02.810Z,95.70
2018-03-26T20:33:36.549Z,95.60
2018-03-26T20:36:04.912Z,95.20
2018-03-26T20:38:33.320Z,95.90
2018-03-26T20:41:01.705Z,96.00
2018-03-26T20:43:30.128Z,95.10
2018-03-26T20:45:58.484Z,93.90
2018-03-26T20:48:26.917Z,95.00
2018-03-26T20:50:56.187Z,94.60
2018-03-26T20:53:24.549Z,95.10
2018-03-26T20:55:52.933Z,94.30
2018-03-26T20:58:22.765Z,93.60
2018-03-26T21:00:51.158Z,94.00
2018-03-26T21:03:19.532Z,93.40
2018-03-26T21:05:47.958Z,93.90
2018-03-26T21:08:16.379Z,93.80
2018-03-26T21:10:44.758Z,94.00
2018-03-26T21:13:13.174Z,93.40
2018-03-26T21:15:41.551Z,93.70
2018-03-26T21:18:09.934Z,93.40
2018-03-26T21:20:43.643Z,93.20
2018-03-26T21:23:12.060Z,92.30
2018-03-26T21:25:40.480Z,93.00
2018-03-26T21:28:09.795Z,92.30
2018-03-26T21:30:38.184Z,92.30
2018-03-26T21:33:06.614Z,92.90
2018-03-26T21:35:34.997Z,92.90
2018-03-26T21:38:03.534Z,92.40
2018-03-26T21:40:32.040Z,92.50
2018-03-26T21:43:02.544Z,92.50
2018-03-26T21:45:30.936Z,92.30
2018-03-26T21:47:59.475Z,91.90
2018-03-26T21:50:28.008Z,91.70
2018-03-26T21:52:56.436Z,92.00
2018-03-26T21:55:25.007Z,92.70
2018-03-26T21:57:53.469Z,92.00
2018-03-26T22:00:22.084Z,92.30
2018-03-26T22:02:50.471Z,92.40
2018-03-26T22:05:21.781Z,92.90
2018-03-26T22:07:50.131Z,92.60
2018-03-26T22:10:18.559Z,93.10
2018-03-26T22:12:46.985Z,93.30
2018-03-26T22:15:15.384Z,93.10
2018-03-26T22:17:43.946Z,92.90
2018-03-26T22:20:12.510Z,92.90
2018-03-26T22:22:42.334Z,93.10
2018-03-26T22:25:10.909Z,93.10
2018-03-26T22:27:42.628Z,92.60
2018-03-26T22:30:11.194Z,92.60
2018-03-26T22:32:39.562Z,92.70
2018-03-26T22:35:07.931Z,92.70
2018-03-26T22:37:36.478Z,92.50
2018-03-26T22:40:05.063Z,93.10
2018-03-26T22:42:34.193Z,92.90
2018-03-26T22:45:02.602Z,92.90
2018-03-26T22:47:31.180Z,93.00
2018-03-26T22:50:05.821Z,93.30
2018-03-26T22:52:39.652Z,93.00
2018-03-26T22:55:08.233Z,92.90
2018-03-26T22:57:36.781Z,93.40
2018-03-26T23:00:05.353Z,93.70
2018-03-26T23:02:33.736Z,93.40
2018-03-26T23:05:02.139Z,92.10
2018-03-26T23:07:30.565Z,91.60
2018-03-26T23:09:59.108Z,92.10
2018-03-26T23:12:27.892Z,92.50
2018-03-26T23:15:01.715Z,92.50
2018-03-26T23:17:33.586Z,93.20
2018-03-26T23:20:01.962Z,93.20
2018-03-26T23:22:49.155Z,93.70
2018-03-26T23:25:17.619Z,93.50
2018-03-26T23:27:45.988Z,93.80
2018-03-26T23:30:14.418Z,94.00
2018-03-26T23:32:42.801Z,94.70
2018-03-26T23:35:11.188Z,94.80
2018-03-26T23:37:40.559Z,94.90
2018-03-26T23:40:09.077Z,94.90
2018-03-26T23:42:37.464Z,95.00
2018-03-26T23:45:05.842Z,95.20
2018-03-26T23:47:35.153Z,95.30
2018-03-26T23:50:03.591Z,95.30
2018-03-26T23:52:32.013Z,95.30
2018-03-26T23:55:00.358Z,95.80
2018-03-26T23:57:28.899Z,95.60
2018-03-26T23:59:58.774Z,95.30
